Time;durP1;ratioP1;P1;durP2;ratioP2;P2;SDS_P1;SDS_P2;PMS_P1;PMS_P2;Temp;Humidity;BMP_temperature;BMP_pressure;BME280_temperature;BME280_humidity;BME280_pressure;Samples;Min_cycle;Max_cycle;Signal;HPM_P1;HPM_P2
2022/11/29 00:00:28;;;;;;;231.77;21.77;;;7.80;99.90;;;;;;4976981;28;20481;-78
2022/11/29 00:02:54;;;;;;;124.22;16.35;;;7.80;99.90;;;;;;4977170;28;20042;-79
2022/11/29 00:05:20;;;;;;;348.98;23.95;;;7.80;99.90;;;;;;4977526;28;20042;-78
2022/11/29 00:07:45;;;;;;;281.75;24.67;;;7.80;99.90;;;;;;5009298;28;20060;-78
2022/11/29 00:10:11;;;;;;;145.65;19.25;;;7.80;99.90;;;;;;4977113;28;20586;-78
2022/11/29 00:12:36;;;;;;;165.60;18.50;;;7.70;99.90;;;;;;5009018;28;20072;-78
2022/11/29 00:15:02;;;;;;;242.10;22.45;;;7.70;99.90;;;;;;5009075;28;20407;-78
2022/11/29 00:17:28;;;;;;;131.45;17.65;;;7.70;99.90;;;;;;5009835;28;20037;-78
2022/11/29 00:19:53;;;;;;;260.45;22.17;;;7.70;99.90;;;;;;4960836;28;20046;-79
2022/11/29 00:22:19;;;;;;;87.78;16.55;;;7.70;99.90;;;;;;4962654;28;20389;-79
2022/11/29 00:24:44;;;;;;;338.48;26.05;;;7.70;99.90;;;;;;4977489;28;20072;-79
2022/11/29 00:27:10;;;;;;;286.00;21.25;;;7.70;99.90;;;;;;5010211;28;20046;-78
2022/11/29 00:29:35;;;;;;;121.45;18.58;;;7.70;99.90;;;;;;4978035;28;20143;-79
2022/11/29 00:32:01;;;;;;;165.43;18.38;;;7.70;99.90;;;;;;5010440;28;20463;-79
2022/11/29 00:34:27;;;;;;;188.73;18.85;;;7.70;99.90;;;;;;4976585;28;20129;-78
2022/11/29 00:36:52;;;;;;;130.48;17.90;;;7.70;99.90;;;;;;4976748;28;20238;-78
2022/11/29 00:39:18;;;;;;;80.65;16.02;;;7.70;99.90;;;;;;5010489;28;20121;-79
2022/11/29 00:41:43;;;;;;;182.55;19.00;;;7.70;99.90;;;;;;4991837;28;20030;-78
2022/11/29 00:44:09;;;;;;;147.35;18.98;;;7.60;99.90;;;;;;5008807;28;20073;-79
2022/11/29 00:46:35;;;;;;;137.07;18.30;;;7.60;99.90;;;;;;4960051;28;20440;-78
2022/11/29 00:49:01;;;;;;;197.82;18.55;;;7.60;99.90;;;;;;4975383;28;20086;-78
2022/11/29 00:51:26;;;;;;;152.80;17.80;;;7.60;99.90;;;;;;4974884;28;20068;-78
2022/11/29 00:53:52;;;;;;;227.65;22.35;;;7.60;99.90;;;;;;4975987;28;20065;-78
2022/11/29 00:56:17;;;;;;;144.52;18.05;;;7.60;99.90;;;;;;4975789;28;20112;-78
2022/11/29 00:58:43;;;;;;;122.30;18.05;;;7.60;99.90;;;;;;4975920;28;20064;-78
2022/11/29 01:01:10;;;;;;;126.28;18.70;;;7.60;99.90;;;;;;4975630;28;20049;-78
2022/11/29 01:03:35;;;;;;;170.20;19.88;;;7.60;99.90;;;;;;4975288;28;20042;-78
2022/11/29 01:06:07;;;;;;;132.65;18.27;;;7.60;99.90;;;;;;5007793;28;20041;-78
2022/11/29 01:08:33;;;;;;;130.68;18.52;;;7.60;99.90;;;;;;4975523;28;20512;-78
2022/11/29 01:11:05;;;;;;;148.95;19.83;;;7.60;99.90;;;;;;4976464;28;20116;-78
2022/11/29 01:13:31;;;;;;;177.07;20.67;;;7.60;99.90;;;;;;4976690;28;20073;-79
2022/11/29 01:15:57;;;;;;;131.35;17.75;;;7.60;99.90;;;;;;4976572;28;20047;-79
2022/11/29 01:18:24;;;;;;;109.60;18.38;;;7.60;99.90;;;;;;4975599;28;20077;-78
2022/11/29 01:20:57;;;;;;;107.65;18.00;;;7.60;99.90;;;;;;5006770;28;20073;-78
2022/11/29 01:23:23;;;;;;;;;;;7.60;99.90;;;;;;4975625;28;20470;-79
2022/11/29 01:25:56;;;;;;;83.18;16.48;;;7.60;99.90;;;;;;4959425;28;19941;-78
2022/11/29 01:28:21;;;;;;;79.18;16.08;;;7.60;99.90;;;;;;4974941;28;20046;-78
2022/11/29 01:30:47;;;;;;;83.35;16.73;;;7.60;99.90;;;;;;4975487;28;20501;-78
2022/11/29 01:33:12;;;;;;;118.72;19.50;;;7.60;99.90;;;;;;4975441;28;20048;-78
2022/11/29 01:35:38;;;;;;;95.15;16.48;;;7.60;99.90;;;;;;4975414;28;20050;-78
2022/11/29 01:38:03;;;;;;;112.47;16.98;;;7.50;99.90;;;;;;4974726;28;20042;-79
2022/11/29 01:40:28;;;;;;;114.22;18.83;;;7.60;99.90;;;;;;4974676;28;20053;-78
2022/11/29 01:42:54;;;;;;;71.68;16.58;;;7.50;99.90;;;;;;5007283;28;20122;-78
2022/11/29 01:45:25;;;;;;;163.45;20.50;;;7.50;99.90;;;;;;4975745;28;20489;-78
2022/11/29 01:47:55;;;;;;;84.40;17.42;;;7.50;99.90;;;;;;5007111;28;20121;-78
2022/11/29 01:50:21;;;;;;;87.60;16.38;;;7.50;99.90;;;;;;4959453;28;20108;-78
2022/11/29 01:52:46;;;;;;;65.63;16.05;;;7.50;99.90;;;;;;4975713;28;20073;-78
2022/11/29 01:55:12;;;;;;;67.63;17.20;;;7.50;99.90;;;;;;4975923;28;20050;-78
2022/11/29 01:57:40;;;;;;;57.55;16.17;;;7.40;99.90;;;;;;4974798;28;20042;-78
2022/11/29 02:00:09;;;;;;;63.38;15.52;;;7.50;99.90;;;;;;4972092;28;20127;-78
2022/11/29 02:02:47;;;;;;;61.15;15.90;;;7.50;99.90;;;;;;4975098;28;20045;-78
2022/11/29 02:05:15;;;;;;;67.93;16.38;;;7.50;99.90;;;;;;4968721;28;20035;-79
2022/11/29 02:07:44;;;;;;;74.93;17.00;;;7.40;99.90;;;;;;5010874;28;20042;-77
2022/11/29 02:10:10;;;;;;;62.92;16.33;;;7.40;99.90;;;;;;4977714;28;20042;-78
2022/11/29 02:12:57;;;;;;;55.72;16.75;;;7.40;99.90;;;;;;4978904;28;20053;-78
2022/11/29 02:15:26;;;;;;;58.47;14.60;;;7.40;99.90;;;;;;4991871;28;20343;-77
2022/11/29 02:18:06;;;;;;;68.22;16.02;;;7.30;99.90;;;;;;4967047;28;20046;-78
2022/11/29 02:20:41;;;;;;;74.18;15.98;;;7.30;99.90;;;;;;4978101;28;20042;-78
2022/11/29 02:23:21;;;;;;;57.97;15.73;;;7.30;99.90;;;;;;4962256;28;20518;-78
2022/11/29 02:26:13;;;;;;;66.10;16.00;;;7.30;99.90;;;;;;4978235;28;20060;-78
2022/11/29 02:29:26;;;;;;;70.97;16.42;;;7.30;99.90;;;;;;4978043;28;20042;-78
2022/11/29 02:32:02;;;;;;;47.63;14.73;;;7.20;99.90;;;;;;4962002;28;20053;-78
2022/11/29 02:34:49;;;;;;;59.30;16.15;;;7.20;99.90;;;;;;4978289;28;20378;-78
2022/11/29 02:37:41;;;;;;;64.75;16.50;;;7.20;99.90;;;;;;4977644;28;20038;-78
2022/11/29 02:40:30;;;;;;;50.20;15.70;;;7.20;99.90;;;;;;4973843;28;20038;-78
2022/11/29 02:43:35;;;;;;;61.30;16.95;;;7.20;99.90;;;;;;4976984;28;20038;-78
2022/11/29 02:46:03;;;;;;;81.43;18.63;;;7.10;99.90;;;;;;4960549;28;20038;-78
2022/11/29 02:48:45;;;;;;;41.72;15.25;;;7.10;99.90;;;;;;4977586;28;20404;-78
2022/11/29 02:51:13;;;;;;;84.53;16.83;;;7.10;99.90;;;;;;4976744;28;20052;-77
2022/11/29 02:53:48;;;;;;;68.40;17.02;;;7.10;99.90;;;;;;4978143;28;20448;-77
2022/11/29 02:56:40;;;;;;;49.33;15.70;;;7.10;99.90;;;;;;4976691;28;20050;-78
2022/11/29 02:59:13;;;;;;;51.97;16.20;;;7.10;99.90;;;;;;4952894;28;20046;-78
2022/11/29 03:02:07;;;;;;;42.10;15.88;;;7.00;99.90;;;;;;4965045;28;20039;-78
2022/11/29 03:04:41;;;;;;;41.60;14.95;;;7.10;99.90;;;;;;5010878;28;20050;-79
2022/11/29 03:07:15;;;;;;;36.25;15.73;;;7.10;99.90;;;;;;4979140;28;20046;-79
2022/11/29 03:09:44;;;;;;;64.38;18.08;;;7.10;99.90;;;;;;4978422;28;20049;-78
2022/11/29 03:12:45;;;;;;;36.03;14.25;;;7.10;99.90;;;;;;4978338;28;20121;-79
2022/11/29 03:15:49;;;;;;;38.70;15.00;;;7.10;99.90;;;;;;4976663;28;20050;-79
2022/11/29 03:18:40;;;;;;;71.25;17.20;;;7.10;99.90;;;;;;4978206;28;20053;-79
2022/11/29 03:21:39;;;;;;;51.97;15.88;;;7.10;99.90;;;;;;5010410;28;20093;-79
2022/11/29 03:24:14;;;;;;;60.67;16.33;;;7.10;99.90;;;;;;4966615;28;20042;-79
2022/11/29 03:27:02;;;;;;;109.00;19.77;;;7.10;99.90;;;;;;4976749;28;20121;-78
2022/11/29 03:29:51;;;;;;;46.55;15.80;;;7.10;99.90;;;;;;5009688;28;20045;-78
2022/11/29 03:32:47;;;;;;;65.95;17.50;;;7.10;99.90;;;;;;4977471;28;20034;-78
2022/11/29 03:35:26;;;;;;;36.70;15.55;;;7.10;99.90;;;;;;4977837;28;20074;-78
2022/11/29 03:38:33;;;;;;;81.07;18.48;;;7.10;99.90;;;;;;4977317;28;20098;-78
2022/11/29 03:41:17;;;;;;;48.92;14.15;;;7.10;99.90;;;;;;4961406;28;20046;-78
2022/11/29 03:44:01;;;;;;;60.73;17.00;;;7.10;99.90;;;;;;4976189;28;20117;-78
2022/11/29 03:47:00;;;;;;;55.28;15.57;;;7.10;99.90;;;;;;4977222;28;20320;-78
2022/11/29 03:49:29;;;;;;;52.45;14.73;;;7.10;99.90;;;;;;4977093;28;20049;-78
2022/11/29 03:52:23;;;;;;;52.50;16.52;;;7.00;99.90;;;;;;4978645;28;20396;-78
2022/11/29 03:55:23;;;;;;;44.67;14.90;;;7.00;99.90;;;;;;4989893;28;20125;-78
2022/11/29 03:58:21;;;;;;;100.40;17.83;;;7.00;99.90;;;;;;4962254;28;20038;-78
2022/11/29 04:00:47;;;;;;;37.35;14.65;;;7.00;99.90;;;;;;4960158;28;20061;-78
2022/11/29 04:03:47;;;;;;;32.50;13.93;;;7.00;99.90;;;;;;4975942;28;20121;-78
2022/11/29 04:06:47;;;;;;;31.98;14.23;;;6.90;99.90;;;;;;4959737;28;20061;-78
2022/11/29 04:09:38;;;;;;;28.13;13.75;;;6.90;99.90;;;;;;4975856;28;20126;-79
2022/11/29 04:12:10;;;;;;;33.47;13.23;;;6.90;99.90;;;;;;4976558;28;20441;-79
2022/11/29 04:15:05;;;;;;;42.47;14.23;;;6.90;99.90;;;;;;4976246;28;20038;-78
2022/11/29 04:17:52;;;;;;;58.78;15.25;;;6.80;99.90;;;;;;4976575;28;20057;-78
2022/11/29 04:20:43;;;;;;;88.97;17.55;;;6.80;99.90;;;;;;4976231;28;20046;-78
2022/11/29 04:23:31;;;;;;;86.05;17.48;;;6.80;99.90;;;;;;4976404;28;20050;-78
2022/11/29 04:26:24;;;;;;;90.28;16.85;;;6.80;99.90;;;;;;4991840;28;20073;-78
2022/11/29 04:29:21;;;;;;;77.57;16.23;;;6.80;99.90;;;;;;4975256;28;20049;-78
2022/11/29 04:32:05;;;;;;;42.63;13.88;;;6.80;99.90;;;;;;4975929;28;20042;-78
2022/11/29 04:34:46;;;;;;;42.20;12.43;;;6.80;99.90;;;;;;4975413;28;20049;-78
2022/11/29 04:37:24;;;;;;;61.65;14.32;;;6.70;99.90;;;;;;4988601;28;20409;-78
2022/11/29 04:40:22;;;;;;;61.03;13.30;;;6.70;99.90;;;;;;4966317;28;20429;-77
2022/11/29 04:43:15;;;;;;;59.20;15.45;;;6.80;99.90;;;;;;5007778;28;20082;-78
2022/11/29 04:46:11;;;;;;;56.22;15.05;;;6.70;99.90;;;;;;4988465;28;20039;-78
2022/11/29 04:48:42;;;;;;;78.65;14.68;;;6.60;99.90;;;;;;4966140;28;20034;-78
2022/11/29 04:51:28;;;;;;;84.90;15.02;;;6.60;99.90;;;;;;4975252;28;20575;-78
2022/11/29 04:54:12;;;;;;;44.33;12.60;;;6.60;99.90;;;;;;4972421;28;20047;-79
2022/11/29 04:57:10;;;;;;;93.63;15.15;;;6.50;99.90;;;;;;4958787;28;20046;-78
2022/11/29 04:59:46;;;;;;;77.90;14.60;;;6.50;99.90;;;;;;4974823;28;20045;-78
2022/11/29 05:02:29;;;;;;;91.88;14.98;;;6.50;99.90;;;;;;5007728;28;20039;-78
2022/11/29 05:04:57;;;;;;;48.17;12.38;;;6.50;99.90;;;;;;4975206;28;20077;-78
2022/11/29 05:07:41;;;;;;;38.42;12.75;;;6.50;99.90;;;;;;4958677;28;20046;-78
2022/11/29 05:10:16;;;;;;;72.13;13.68;;;6.50;99.90;;;;;;4975107;28;20113;-78
2022/11/29 05:13:05;;;;;;;65.68;13.43;;;6.40;99.90;;;;;;4975670;28;20046;-78
2022/11/29 05:15:51;;;;;;;80.53;14.57;;;6.40;99.90;;;;;;4975144;28;20042;-78
2022/11/29 05:18:57;;;;;;;74.55;14.90;;;6.40;99.90;;;;;;4975112;28;20049;-78
2022/11/29 05:22:01;;;;;;;55.80;12.65;;;6.40;99.90;;;;;;4974360;28;20150;-78
2022/11/29 05:24:51;;;;;;;38.47;11.73;;;6.40;99.90;;;;;;4971722;28;20050;-78
2022/11/29 05:27:33;;;;;;;44.70;11.65;;;6.40;99.90;;;;;;4959491;28;20050;-78
2022/11/29 05:30:16;;;;;;;40.95;11.85;;;6.40;99.90;;;;;;4974374;28;20042;-77
2022/11/29 05:33:12;;;;;;;31.02;10.05;;;6.40;99.90;;;;;;4974790;28;20050;-78
2022/11/29 05:36:12;;;;;;;23.80;10.02;;;6.40;99.90;;;;;;4974584;28;20048;-78
2022/11/29 05:39:19;;;;;;;23.08;9.68;;;6.40;99.90;;;;;;4942761;28;20058;-77
2022/11/29 05:42:06;;;;;;;39.03;10.18;;;6.40;99.90;;;;;;4977902;28;20074;-78
2022/11/29 05:44:56;;;;;;;38.13;10.70;;;6.30;99.90;;;;;;4978847;28;20042;-78
2022/11/29 05:47:36;;;;;;;34.85;10.18;;;6.30;99.90;;;;;;4978741;28;20411;-79
2022/11/29 05:50:18;;;;;;;38.85;10.48;;;6.30;99.90;;;;;;4961813;28;20077;-78
2022/11/29 05:53:01;;;;;;;43.20;9.45;;;6.30;99.90;;;;;;5010191;28;20049;-78
2022/11/29 05:55:44;;;;;;;40.17;10.93;;;6.20;99.90;;;;;;4975081;28;20070;-78
2022/11/29 05:58:30;;;;;;;29.30;10.07;;;6.20;99.90;;;;;;4975138;28;20043;-78
2022/11/29 06:01:08;;;;;;;40.15;12.02;;;6.20;99.90;;;;;;4974852;28;20411;-79
2022/11/29 06:03:49;;;;;;;57.97;13.15;;;6.20;99.90;;;;;;4975725;28;20053;-79
2022/11/29 06:06:28;;;;;;;45.40;11.57;;;6.20;99.90;;;;;;4962246;28;20043;-78
2022/11/29 06:09:04;;;;;;;32.65;10.48;;;6.30;99.90;;;;;;4979021;28;20038;-78
2022/11/29 06:11:37;;;;;;;27.05;10.25;;;6.20;99.90;;;;;;4962235;28;20077;-78
2022/11/29 06:14:06;;;;;;;35.78;11.63;;;6.20;99.90;;;;;;4978535;28;20050;-78
2022/11/29 06:16:55;;;;;;;33.10;10.68;;;6.20;99.90;;;;;;4977724;28;20046;-78
2022/11/29 06:19:44;;;;;;;31.13;10.77;;;6.20;99.90;;;;;;4977508;28;20046;-78
2022/11/29 06:22:29;;;;;;;36.70;12.30;;;6.20;99.90;;;;;;4975417;28;20042;-78
2022/11/29 06:25:22;;;;;;;29.00;10.10;;;6.20;99.90;;;;;;4959481;28;20445;-78
2022/11/29 06:28:01;;;;;;;27.85;10.80;;;6.20;99.90;;;;;;4958269;28;20049;-78
2022/11/29 06:30:41;;;;;;;30.58;10.65;;;6.20;99.90;;;;;;4964966;28;20042;-78
2022/11/29 06:33:25;;;;;;;30.50;11.50;;;6.20;99.90;;;;;;4977571;28;20046;-78
2022/11/29 06:36:22;;;;;;;26.85;11.50;;;6.20;99.90;;;;;;4959541;28;20045;-79
2022/11/29 06:38:48;;;;;;;27.73;11.00;;;6.20;99.90;;;;;;4957887;28;20094;-78
2022/11/29 06:41:20;;;;;;;32.58;11.15;;;6.20;99.90;;;;;;4958354;28;20547;-78
2022/11/29 06:43:46;;;;;;;34.45;12.00;;;6.20;99.90;;;;;;4965023;28;20035;-78
2022/11/29 06:46:18;;;;;;;49.53;12.82;;;6.20;99.90;;;;;;4977326;28;20121;-78
2022/11/29 06:49:08;;;;;;;35.17;11.45;;;6.10;99.90;;;;;;4977135;28;20109;-78
2022/11/29 06:52:05;;;;;;;35.80;11.88;;;6.20;99.90;;;;;;5010086;28;20401;-78
2022/11/29 06:54:36;;;;;;;34.53;12.18;;;6.20;99.90;;;;;;4961125;28;20564;-78
2022/11/29 06:57:18;;;;;;;35.30;11.50;;;6.20;99.90;;;;;;4977857;28;20050;-78
2022/11/29 07:00:15;;;;;;;39.58;12.20;;;6.20;99.90;;;;;;4977678;28;20513;-78
2022/11/29 07:03:00;;;;;;;35.65;11.23;;;6.20;99.90;;;;;;4976633;28;20038;-78
2022/11/29 07:05:32;;;;;;;25.90;11.32;;;6.20;99.90;;;;;;4977069;28;20497;-78
2022/11/29 07:08:09;;;;;;;30.35;11.35;;;6.20;99.90;;;;;;4960859;28;20069;-78
2022/11/29 07:10:37;;;;;;;26.67;11.45;;;6.20;99.90;;;;;;4978028;28;20046;-78
2022/11/29 07:13:03;;;;;;;30.35;12.43;;;6.20;99.90;;;;;;4977255;28;20343;-78
2022/11/29 07:15:29;;;;;;;24.17;10.93;;;6.20;99.90;;;;;;4977084;28;20050;-77
2022/11/29 07:18:12;;;;;;;33.35;11.93;;;6.20;99.90;;;;;;4976412;28;20046;-78
2022/11/29 07:20:47;;;;;;;39.60;11.93;;;6.10;99.90;;;;;;4976974;28;20042;-78
2022/11/29 07:23:39;;;;;;;30.92;12.57;;;6.10;99.90;;;;;;4976676;28;20440;-78
2022/11/29 07:26:18;;;;;;;24.15;10.60;;;6.10;99.90;;;;;;4976832;28;20491;-78
2022/11/29 07:28:46;;;;;;;25.52;11.38;;;6.10;99.90;;;;;;4975847;28;20519;-78
2022/11/29 07:31:32;;;;;;;22.00;10.98;;;6.10;99.90;;;;;;4976785;28;20216;-78
2022/11/29 07:34:10;;;;;;;21.77;10.75;;;6.10;99.90;;;;;;4957699;28;20066;-78
2022/11/29 07:36:43;;;;;;;22.60;9.77;;;6.10;99.90;;;;;;4972313;28;20043;-78
2022/11/29 07:39:21;;;;;;;32.40;12.52;;;6.10;99.90;;;;;;4975164;28;20061;-78
2022/11/29 07:41:49;;;;;;;25.45;11.95;;;6.10;99.90;;;;;;4975590;28;20459;-78
2022/11/29 07:44:15;;;;;;;22.27;10.85;;;6.20;99.90;;;;;;4976845;28;20522;-78
2022/11/29 07:46:40;;;;;;;18.45;10.02;;;6.10;99.90;;;;;;4959879;28;20030;-78
2022/11/29 07:49:10;;;;;;;25.60;11.13;;;6.10;99.90;;;;;;4959975;28;20412;-78
2022/11/29 07:51:35;;;;;;;31.45;11.18;;;6.10;99.90;;;;;;4976359;28;20056;-78
2022/11/29 07:54:01;;;;;;;20.65;10.35;;;6.10;99.90;;;;;;4976124;28;20046;-78
2022/11/29 07:56:26;;;;;;;24.23;11.00;;;6.10;99.90;;;;;;4977080;28;20102;-78
2022/11/29 07:58:52;;;;;;;22.42;10.65;;;6.10;99.90;;;;;;5008286;28;20133;-78
2022/11/29 08:01:17;;;;;;;20.35;10.68;;;6.10;99.90;;;;;;4974647;28;20038;-77
2022/11/29 08:03:43;;;;;;;21.73;10.68;;;6.10;99.90;;;;;;5008100;28;20053;-78
2022/11/29 08:06:09;;;;;;;22.70;10.38;;;6.10;99.90;;;;;;4974765;28;20049;-78
2022/11/29 08:08:34;;;;;;;23.58;10.32;;;6.10;99.90;;;;;;4974017;28;20034;-78
2022/11/29 08:11:00;;;;;;;28.23;10.88;;;6.20;99.90;;;;;;5008563;28;20076;-77
2022/11/29 08:13:25;;;;;;;25.05;11.07;;;6.20;99.90;;;;;;4975393;28;20101;-78
2022/11/29 08:15:51;;;;;;;23.25;11.40;;;6.20;99.90;;;;;;5008384;28;20046;-78
2022/11/29 08:18:16;;;;;;;25.02;11.57;;;6.30;99.90;;;;;;5008428;28;20042;-78
2022/11/29 08:20:42;;;;;;;23.70;10.82;;;6.30;99.90;;;;;;5008097;28;20046;-78
2022/11/29 08:23:11;;;;;;;22.23;11.40;;;6.30;99.90;;;;;;4959750;28;20038;-78
2022/11/29 08:25:37;;;;;;;26.35;11.55;;;6.40;99.90;;;;;;4976244;28;20147;-79
2022/11/29 08:28:03;;;;;;;23.45;11.32;;;6.40;99.90;;;;;;5007408;28;20202;-79
2022/11/29 08:30:29;;;;;;;24.67;10.75;;;6.40;99.90;;;;;;4974091;28;20416;-78
2022/11/29 08:32:54;;;;;;;26.70;11.45;;;6.40;99.90;;;;;;4991415;28;20042;-78
2022/11/29 08:35:21;;;;;;;24.98;10.35;;;6.50;99.90;;;;;;4974931;28;20046;-78
2022/11/29 08:37:47;;;;;;;23.67;10.60;;;6.50;99.90;;;;;;4991689;28;20125;-78
2022/11/29 08:40:14;;;;;;;23.45;10.65;;;6.60;99.90;;;;;;4975016;28;20125;-78
2022/11/29 08:42:39;;;;;;;28.48;10.93;;;6.50;99.90;;;;;;4974122;28;20037;-78
2022/11/29 08:45:06;;;;;;;20.60;10.50;;;6.60;99.90;;;;;;4990079;28;20034;-78
2022/11/29 08:47:34;;;;;;;23.17;10.70;;;6.60;99.90;;;;;;4976079;28;20117;-78
2022/11/29 08:50:01;;;;;;;24.25;10.85;;;6.60;99.90;;;;;;4959278;28;20101;-78
2022/11/29 08:55:21;;;;;;;29.88;10.05;;;6.60;99.90;;;;;;5006527;28;20141;-78
2022/11/29 08:57:48;;;;;;;23.35;10.07;;;6.60;99.90;;;;;;4974316;28;20064;-78
2022/11/29 09:00:15;;;;;;;25.58;11.32;;;6.60;99.90;;;;;;4974634;28;20116;-78
2022/11/29 09:02:40;;;;;;;21.33;10.73;;;6.60;99.90;;;;;;4974006;28;20045;-78
2022/11/29 09:05:08;;;;;;;24.42;10.60;;;6.60;99.90;;;;;;4990541;28;20030;-78
2022/11/29 09:07:33;;;;;;;26.30;11.00;;;6.70;99.90;;;;;;4974303;28;20089;-78
2022/11/29 09:10:03;;;;;;;22.05;10.13;;;6.70;99.90;;;;;;4973426;28;20050;-78
2022/11/29 09:12:31;;;;;;;21.13;10.70;;;6.70;99.90;;;;;;4993435;28;20046;-78
2022/11/29 09:14:56;;;;;;;23.20;10.55;;;6.80;99.90;;;;;;4978214;28;20652;-78
2022/11/29 09:17:22;;;;;;;21.98;11.38;;;6.80;99.90;;;;;;4994897;28;20038;-78
2022/11/29 09:19:47;;;;;;;23.42;10.45;;;6.90;99.90;;;;;;4994350;28;20038;-78
2022/11/29 09:22:13;;;;;;;23.77;10.88;;;7.00;99.90;;;;;;4979171;28;20038;-79
2022/11/29 09:24:38;;;;;;;22.48;10.75;;;7.00;99.90;;;;;;4994969;28;20042;-79
2022/11/29 09:27:05;;;;;;;21.92;10.20;;;7.10;99.90;;;;;;4979063;28;20043;-78
2022/11/29 09:29:30;;;;;;;23.05;11.50;;;7.20;99.90;;;;;;4994714;28;20496;-79
2022/11/29 09:31:56;;;;;;;25.98;10.43;;;7.20;99.90;;;;;;4995424;28;20038;-78
2022/11/29 09:34:21;;;;;;;28.77;10.77;;;7.40;99.90;;;;;;4978667;28;20129;-78
2022/11/29 09:36:47;;;;;;;22.00;10.27;;;7.40;99.90;;;;;;4979031;28;20034;-79
2022/11/29 09:39:12;;;;;;;21.67;10.50;;;7.50;99.90;;;;;;4977070;28;20051;-79
2022/11/29 09:41:59;;;;;;;33.53;10.02;;;7.50;99.90;;;;;;4978432;28;20125;-79
2022/11/29 09:44:53;;;;;;;25.02;10.27;;;7.60;99.90;;;;;;4976649;28;20047;-79
2022/11/29 09:47:56;;;;;;;21.67;10.07;;;7.70;99.90;;;;;;4979550;28;20389;-79
2022/11/29 09:50:42;;;;;;;26.85;9.13;;;7.80;99.90;;;;;;4979411;28;20046;-79
2022/11/29 09:53:18;;;;;;;24.75;9.45;;;7.80;99.90;;;;;;4983107;28;20042;-79
2022/11/29 09:56:14;;;;;;;25.88;9.20;;;7.90;99.90;;;;;;4964362;28;20049;-79
2022/11/29 09:58:50;;;;;;;25.38;8.65;;;7.90;99.90;;;;;;4979347;28;20066;-79
2022/11/29 10:01:28;;;;;;;18.05;8.63;;;8.00;99.90;;;;;;4983284;28;20536;-79
2022/11/29 10:03:59;;;;;;;29.20;9.30;;;8.10;99.90;;;;;;5015415;28;20038;-80
2022/11/29 10:06:37;;;;;;;22.92;8.40;;;8.10;99.90;;;;;;4978627;28;20069;-79
2022/11/29 10:09:11;;;;;;;27.08;9.68;;;8.20;99.90;;;;;;4979573;28;20045;-79
2022/11/29 10:11:45;;;;;;;27.27;9.23;;;8.20;99.90;;;;;;4997611;28;20057;-79
2022/11/29 10:14:14;;;;;;;;;;;8.30;99.90;;;;;;4960581;28;20096;-79
2022/11/29 10:16:52;;;;;;;25.45;9.02;;;8.30;99.90;;;;;;5005034;28;19918;-79
2022/11/29 10:19:32;;;;;;;25.25;9.25;;;8.30;99.90;;;;;;4981996;28;20057;-80
2022/11/29 10:22:04;;;;;;;26.67;8.52;;;8.30;99.90;;;;;;4964312;28;20373;-79
2022/11/29 10:24:31;;;;;;;23.40;9.15;;;8.40;99.90;;;;;;5013426;28;20042;-80
2022/11/29 10:26:57;;;;;;;25.23;8.68;;;8.40;99.90;;;;;;4981970;28;20030;-79
2022/11/29 10:29:23;;;;;;;34.95;9.48;;;8.40;99.90;;;;;;4966156;28;20045;-78
2022/11/29 10:31:49;;;;;;;23.80;8.35;;;8.50;99.90;;;;;;4979763;28;20496;-81
2022/11/29 10:34:18;;;;;;;24.00;8.50;;;8.50;99.90;;;;;;4978056;28;20069;-80
2022/11/29 10:36:48;;;;;;;26.05;9.10;;;8.50;99.90;;;;;;4975762;28;20038;-80
2022/11/29 10:39:38;;;;;;;17.85;8.60;;;8.60;99.90;;;;;;4978719;28;20042;-80
2022/11/29 10:42:47;;;;;;;26.55;9.10;;;8.60;99.90;;;;;;4964140;28;20038;-80
2022/11/29 10:44:51;;;;;;;25.80;9.23;;;8.60;99.90;;;;;;4977578;28;20048;-80
2022/11/29 10:47:17;;;;;;;24.77;8.65;;;8.70;99.90;;;;;;4982176;28;20101;-80
2022/11/29 10:49:42;;;;;;;23.15;10.05;;;8.70;99.90;;;;;;4980806;28;20392;-78
2022/11/29 10:52:18;;;;;;;23.48;9.30;;;8.80;99.90;;;;;;4980620;28;20098;-80
2022/11/29 10:54:45;;;;;;;19.08;8.00;;;8.80;99.90;;;;;;4981638;28;20038;-80
2022/11/29 10:57:19;;;;;;;23.05;10.43;;;8.80;99.90;;;;;;4978356;28;20173;-80
2022/11/29 10:59:58;;;;;;;;;;;8.90;99.90;;;;;;4981087;28;20065;-80
2022/11/29 11:02:24;;;;;;;25.40;9.77;;;8.90;99.90;;;;;;4973819;28;19971;-79
2022/11/29 11:04:50;;;;;;;21.65;8.98;;;8.90;99.90;;;;;;4981189;28;20631;-81
2022/11/29 11:07:24;;;;;;;20.10;8.82;;;9.00;99.90;;;;;;4978966;28;20092;-81
2022/11/29 11:09:54;;;;;;;24.50;9.63;;;9.00;99.90;;;;;;4962910;28;20126;-81
2022/11/29 11:12:24;;;;;;;23.20;10.07;;;9.10;99.90;;;;;;4980388;28;20035;-81
2022/11/29 11:14:50;;;;;;;27.58;9.90;;;9.10;99.90;;;;;;4980768;28;20035;-81
2022/11/29 11:17:25;;;;;;;24.65;9.73;;;9.20;99.90;;;;;;4979279;28;20034;-80
2022/11/29 11:20:21;;;;;;;20.65;9.40;;;9.30;99.90;;;;;;4978771;28;20046;-80
2022/11/29 11:23:02;;;;;;;22.45;11.57;;;9.30;99.90;;;;;;4980008;28;20598;-80
2022/11/29 11:25:34;;;;;;;19.65;9.75;;;9.40;99.90;;;;;;4982900;28;20086;-81
2022/11/29 11:28:24;;;;;;;19.45;10.50;;;9.40;99.90;;;;;;4980804;28;20030;-78
2022/11/29 11:31:03;;;;;;;26.10;10.82;;;9.40;99.90;;;;;;4995895;28;20101;-80
2022/11/29 11:33:32;;;;;;;23.20;11.10;;;9.40;99.90;;;;;;4977458;28;20563;-79
2022/11/29 11:36:20;;;;;;;18.35;11.48;;;9.40;99.90;;;;;;4976287;28;20038;-79
2022/11/29 11:38:51;;;;;;;22.65;11.77;;;9.40;99.90;;;;;;4991861;28;20042;-80
2022/11/29 11:44:33;;;;;;;20.00;11.15;;;9.40;99.90;;;;;;4973652;28;20041;-81
2022/11/29 11:46:59;;;;;;;19.50;11.35;;;9.40;99.90;;;;;;4982066;28;20399;-81
2022/11/29 11:50:03;;;;;;;20.48;11.57;;;9.40;99.90;;;;;;4981040;28;20069;-80
2022/11/29 11:52:37;;;;;;;18.10;11.10;;;9.40;99.90;;;;;;4999023;28;20544;-81
2022/11/29 11:55:30;;;;;;;17.33;9.40;;;9.50;99.90;;;;;;4978918;28;20046;-79
2022/11/29 11:58:10;;;;;;;17.92;10.30;;;9.40;99.90;;;;;;5156279;27;20435;-80
2022/11/29 12:00:38;;;;;;;19.08;9.90;;;9.50;99.90;;;;;;5121537;27;20043;-82
2022/11/29 12:03:22;;;;;;;15.32;9.75;;;9.50;99.90;;;;;;5108287;27;20112;-81
2022/11/29 12:05:50;;;;;;;16.58;9.73;;;9.40;99.90;;;;;;5132293;27;20041;-81
2022/11/29 12:08:16;;;;;;;12.95;8.75;;;9.40;99.90;;;;;;5115573;27;20103;-81
2022/11/29 12:10:43;;;;;;;13.48;8.82;;;9.40;99.90;;;;;;5117530;27;20045;-79
2022/11/29 12:13:22;;;;;;;12.68;7.78;;;9.40;99.90;;;;;;5111700;28;20425;-80
2022/11/29 12:15:49;;;;;;;12.73;8.27;;;9.30;99.90;;;;;;5135509;27;20081;-81
2022/11/29 12:18:29;;;;;;;14.60;8.98;;;9.30;99.90;;;;;;5132490;27;20516;-80
2022/11/29 12:21:02;;;;;;;11.50;8.05;;;9.20;99.90;;;;;;5120137;27;20043;-80
2022/11/29 12:24:02;;;;;;;11.80;7.18;;;9.20;99.90;;;;;;5110927;27;20065;-80
2022/11/29 12:26:32;;;;;;;13.02;7.68;;;9.10;99.90;;;;;;5125893;27;20046;-80
2022/11/29 12:28:58;;;;;;;9.98;7.47;;;9.00;99.90;;;;;;5122439;27;20044;-80
2022/11/29 12:31:37;;;;;;;10.98;7.05;;;9.00;99.90;;;;;;5128510;27;20048;-80
2022/11/29 12:34:22;;;;;;;12.07;7.47;;;9.00;99.90;;;;;;5103286;27;20047;-80
2022/11/29 12:37:10;;;;;;;13.38;7.10;;;8.90;99.90;;;;;;5121544;27;20070;-81
2022/11/29 12:40:00;;;;;;;11.77;7.25;;;9.00;99.90;;;;;;5115257;27;20043;-81
2022/11/29 12:43:08;;;;;;;11.65;7.65;;;8.90;99.90;;;;;;5117496;27;20437;-81
2022/11/29 12:45:57;;;;;;;10.27;7.32;;;8.90;99.90;;;;;;5045704;27;20089;-81
2022/11/29 12:48:56;;;;;;;11.40;7.60;;;8.90;99.90;;;;;;5114328;27;20172;-81
2022/11/29 12:51:40;;;;;;;10.38;7.85;;;8.90;99.90;;;;;;5124700;27;20039;-80
2022/11/29 12:54:33;;;;;;;11.50;7.82;;;8.90;99.90;;;;;;5103215;28;20063;-81
2022/11/29 12:57:09;;;;;;;12.27;8.18;;;8.80;99.90;;;;;;5114385;27;20055;-79
2022/11/29 13:00:11;;;;;;;10.13;7.88;;;8.80;99.90;;;;;;5128062;27;20518;-81
2022/11/29 13:02:47;;;;;;;10.25;8.65;;;8.80;99.90;;;;;;5123360;27;20522;-80
2022/11/29 13:05:57;;;;;;;11.27;8.55;;;8.80;99.90;;;;;;5127088;27;20448;-81
2022/11/29 13:08:31;;;;;;;11.27;8.70;;;8.80;99.90;;;;;;5093510;27;20069;-81
2022/11/29 13:11:29;;;;;;;12.15;9.30;;;8.80;99.90;;;;;;5087865;27;20129;-81
2022/11/29 13:14:08;;;;;;;14.07;9.65;;;8.70;99.90;;;;;;5104412;27;20062;-81
2022/11/29 13:16:55;;;;;;;12.20;8.80;;;8.60;99.90;;;;;;5089877;28;20036;-80
2022/11/29 13:19:49;;;;;;;10.90;8.93;;;8.60;99.90;;;;;;5116516;27;20029;-80
2022/11/29 13:22:38;;;;;;;13.45;10.07;;;8.60;99.90;;;;;;5089605;28;20047;-81
2022/11/29 13:25:13;;;;;;;13.95;10.73;;;8.60;99.90;;;;;;5089235;27;20042;-81
2022/11/29 13:27:52;;;;;;;12.93;10.50;;;8.50;99.90;;;;;;5092408;27;20041;-79
2022/11/29 13:30:18;;;;;;;15.02;10.65;;;8.50;99.90;;;;;;5113385;27;20466;-80
2022/11/29 13:32:55;;;;;;;13.23;10.63;;;8.40;99.90;;;;;;5116969;28;20556;-81